createdAt,value
2019-04-01T00:01:12.422Z,37.98
2019-04-01T00:03:43.655Z,38.00
2019-04-01T00:06:14.812Z,38.05
2019-04-01T00:08:47.096Z,38.04
2019-04-01T00:11:18.324Z,38.08
2019-04-01T00:13:49.537Z,38.17
2019-04-01T00:16:20.802Z,38.23
2019-04-01T00:19:02.900Z,38.30
2019-04-01T00:21:25.974Z,38.38
2019-04-01T00:23:57.219Z,38.45
2019-04-01T00:26:28.506Z,38.52
2019-04-01T00:28:59.699Z,38.59
2019-04-01T00:31:30.936Z,38.61
2019-04-01T00:34:02.150Z,38.70
2019-04-01T00:36:33.259Z,38.71
2019-04-01T00:39:06.462Z,38.77
2019-04-01T00:41:47.084Z,38.82
2019-04-01T00:44:18.253Z,38.85
2019-04-01T00:46:49.498Z,38.87
2019-04-01T00:49:20.698Z,38.89
2019-04-01T00:51:51.908Z,38.91
2019-04-01T00:54:23.099Z,38.95
2019-04-01T00:56:54.265Z,38.96
2019-04-01T00:59:25.675Z,38.98
2019-04-01T01:01:56.865Z,39.00
2019-04-01T01:04:28.062Z,39.04
2019-04-01T01:06:59.347Z,39.05
2019-04-01T01:09:30.474Z,39.08
2019-04-01T01:12:01.633Z,39.12
2019-04-01T01:14:32.924Z,39.13
2019-04-01T01:17:04.136Z,39.17
2019-04-01T01:19:35.319Z,39.20
2019-04-01T01:22:06.441Z,39.20
2019-04-01T01:24:37.641Z,39.19
2019-04-01T01:27:08.797Z,39.24
2019-04-01T01:29:40.022Z,39.26
2019-04-01T01:32:11.232Z,39.27
2019-04-01T01:34:42.446Z,39.31
2019-04-01T01:37:13.609Z,39.35
2019-04-01T01:39:44.792Z,39.42
2019-04-01T01:42:16.017Z,39.46
2019-04-01T01:44:47.179Z,39.50
2019-04-01T01:47:18.390Z,39.51
2019-04-01T01:49:49.535Z,39.53
2019-04-01T01:52:20.684Z,39.60
2019-04-01T01:54:53.011Z,39.66
2019-04-01T01:57:24.169Z,39.71
2019-04-01T01:59:55.874Z,39.76
2019-04-01T02:02:27.052Z,39.79
2019-04-01T02:04:58.257Z,39.81
2019-04-01T02:07:29.477Z,39.79
2019-04-01T02:10:00.708Z,39.82
2019-04-01T02:12:31.935Z,39.85
2019-04-01T02:15:03.103Z,39.87
2019-04-01T02:17:34.329Z,39.92
2019-04-01T02:20:06.206Z,39.92
2019-04-01T02:22:37.332Z,39.94
2019-04-01T02:25:08.545Z,39.95
2019-04-01T02:27:39.735Z,40.00
2019-04-01T02:30:11.046Z,40.07
2019-04-01T02:32:42.202Z,40.13
2019-04-01T02:35:13.394Z,40.17
2019-04-01T02:37:44.638Z,40.20
2019-04-01T02:40:15.978Z,40.26
2019-04-01T02:42:47.049Z,40.32
2019-04-01T02:45:18.312Z,40.34
2019-04-01T02:47:49.503Z,40.37
2019-04-01T02:50:20.818Z,40.42
2019-04-01T02:52:51.994Z,40.48
2019-04-01T02:55:23.229Z,40.50
2019-04-01T02:57:54.465Z,40.55
2019-04-01T03:00:25.825Z,40.62
2019-04-01T03:02:57.026Z,40.61
2019-04-01T03:05:28.335Z,40.63
2019-04-01T03:07:59.504Z,40.68
2019-04-01T03:10:30.674Z,40.71
2019-04-01T03:13:01.843Z,40.74
2019-04-01T03:15:33.273Z,40.77
2019-04-01T03:18:04.425Z,40.79
2019-04-01T03:20:35.684Z,40.82
2019-04-01T03:23:06.898Z,40.86
2019-04-01T03:25:38.078Z,40.91
2019-04-01T03:28:09.206Z,40.94
2019-04-01T03:30:40.365Z,40.98
2019-04-01T03:33:11.651Z,41.02
2019-04-01T03:35:42.838Z,41.02
2019-04-01T03:38:14.013Z,41.04
2019-04-01T03:40:45.148Z,41.06
2019-04-01T03:43:16.525Z,41.11
2019-04-01T03:45:47.654Z,41.14
2019-04-01T03:48:18.835Z,41.20
2019-04-01T03:50:51.823Z,41.25
2019-04-01T03:53:22.976Z,41.28
2019-04-01T03:55:54.261Z,41.32
2019-04-01T03:58:25.444Z,41.35
2019-04-01T04:00:56.613Z,41.37
2019-04-01T04:03:27.899Z,41.45
2019-04-01T04:05:59.068Z,41.45
2019-04-01T04:08:30.209Z,41.46
2019-04-01T04:11:01.462Z,41.45
2019-04-01T04:13:32.605Z,41.49
2019-04-01T04:16:03.776Z,41.51
2019-04-01T04:18:34.926Z,41.52
2019-04-01T04:21:06.113Z,41.54
2019-04-01T04:23:37.211Z,41.55
2019-04-01T04:26:08.390Z,41.59
2019-04-01T04:28:39.591Z,41.62
2019-04-01T04:31:10.794Z,41.68
2019-04-01T04:33:41.969Z,41.72
2019-04-01T04:36:13.180Z,41.79
2019-04-01T04:38:44.374Z,41.84
2019-04-01T04:41:15.518Z,41.87
2019-04-01T04:43:46.813Z,41.90
2019-04-01T04:46:21.007Z,41.95
2019-04-01T04:48:50.840Z,42.00
2019-04-01T04:51:22.049Z,42.03
2019-04-01T04:53:53.159Z,42.05
2019-04-01T04:56:25.405Z,42.03
2019-04-01T04:58:56.582Z,42.01
2019-04-01T05:01:27.711Z,42.03
2019-04-01T05:03:58.855Z,42.02
2019-04-01T05:06:30.123Z,42.04
2019-04-01T05:09:01.284Z,42.04
2019-04-01T05:11:33.810Z,42.05
2019-04-01T05:14:05.037Z,42.05
2019-04-01T05:16:36.184Z,42.05
2019-04-01T05:19:07.404Z,42.07
2019-04-01T05:21:40.613Z,42.08
2019-04-01T05:24:11.888Z,42.11
2019-04-01T05:26:45.135Z,42.12
2019-04-01T05:29:16.450Z,42.17
2019-04-01T05:31:47.849Z,42.15
2019-04-01T05:34:20.607Z,42.19
2019-04-01T05:36:51.731Z,42.21
2019-04-01T05:39:22.894Z,42.22
2019-04-01T05:41:54.024Z,42.20
2019-04-01T05:44:25.128Z,42.18
2019-04-01T05:46:56.389Z,42.18
2019-04-01T05:49:27.758Z,42.14
2019-04-01T05:51:58.958Z,42.13
2019-04-01T05:54:30.080Z,42.09
2019-04-01T05:57:01.253Z,42.05
2019-04-01T05:59:32.452Z,42.03
2019-04-01T06:02:05.131Z,42.00
2019-04-01T06:04:36.339Z,41.97
2019-04-01T06:07:07.500Z,41.92
2019-04-01T06:09:38.832Z,41.85
2019-04-01T06:12:10.078Z,41.83
2019-04-01T06:14:41.182Z,41.78
2019-04-01T06:17:13.326Z,41.74
2019-04-01T06:19:44.414Z,41.71
2019-04-01T06:22:16.259Z,41.65
2019-04-01T06:24:47.352Z,41.62
2019-04-01T06:27:18.705Z,41.56
2019-04-01T06:29:49.907Z,41.50
2019-04-01T06:32:21.069Z,41.46
2019-04-01T06:34:53.213Z,41.41
2019-04-01T06:37:24.544Z,41.35
2019-04-01T06:39:55.787Z,41.27
2019-04-01T06:42:27.045Z,41.18
2019-04-01T06:44:58.260Z,41.09
2019-04-01T06:47:29.685Z,41.03
2019-04-01T06:50:01.158Z,40.99
2019-04-01T06:52:32.488Z,40.95
2019-04-01T06:55:03.753Z,40.85
2019-04-01T06:57:35.231Z,40.77
2019-04-01T07:00:06.761Z,40.68
2019-04-01T07:02:38.238Z,40.56
2019-04-01T07:05:12.359Z,40.46
2019-04-01T07:07:43.899Z,40.37
2019-04-01T07:10:15.527Z,40.26
2019-04-01T07:12:47.064Z,40.16
2019-04-01T07:15:18.698Z,40.07
2019-04-01T07:17:49.964Z,39.96
2019-04-01T07:20:21.258Z,39.89
2019-04-01T07:22:52.550Z,39.82
2019-04-01T07:25:23.805Z,39.81
2019-04-01T07:27:55.094Z,39.77
2019-04-01T07:30:26.299Z,39.75
2019-04-01T07:32:57.580Z,39.73
2019-04-01T07:35:28.882Z,39.69
2019-04-01T07:38:00.248Z,39.67
2019-04-01T07:40:31.535Z,39.63
2019-04-01T07:43:02.788Z,39.58
2019-04-01T07:45:35.209Z,39.52
2019-04-01T07:48:06.453Z,39.47
2019-04-01T07:50:37.736Z,39.40
2019-04-01T07:53:08.967Z,39.31
2019-04-01T07:55:40.205Z,39.23
2019-04-01T07:58:11.718Z,39.18
2019-04-01T08:00:42.975Z,39.06
2019-04-01T08:03:14.230Z,39.06
2019-04-01T08:05:45.590Z,39.07
2019-04-01T08:08:18.433Z,39.05
2019-04-01T08:10:49.941Z,39.03
2019-04-01T08:13:21.246Z,38.99
2019-04-01T08:15:52.524Z,39.00
2019-04-01T08:18:23.916Z,38.95
2019-04-01T08:20:55.214Z,38.89
2019-04-01T08:23:26.470Z,38.83
2019-04-01T08:25:57.675Z,38.82
2019-04-01T08:28:29.165Z,38.75
2019-04-01T08:31:00.558Z,38.61
2019-04-01T08:33:32.323Z,38.54
2019-04-01T08:36:03.640Z,38.40
2019-04-01T08:38:34.959Z,38.30
2019-04-01T08:41:06.313Z,38.29
2019-04-01T08:43:37.496Z,38.20
2019-04-01T08:46:08.810Z,38.05
2019-04-01T08:48:41.342Z,38.06
2019-04-01T08:51:14.430Z,38.01
2019-04-01T08:53:45.916Z,37.91
2019-04-01T08:56:17.126Z,37.82
2019-04-01T08:58:48.358Z,37.68
2019-04-01T09:01:34.215Z,37.64
2019-04-01T09:03:52.733Z,37.54
2019-04-01T09:06:23.981Z,37.46
2019-04-01T09:08:55.191Z,37.30
2019-04-01T09:11:26.464Z,37.20
2019-04-01T09:13:57.879Z,37.12
2019-04-01T09:16:29.130Z,37.10
2019-04-01T09:19:01.375Z,37.08
2019-04-01T09:21:32.752Z,37.02
2019-04-01T09:24:05.062Z,36.79
2019-04-01T09:26:36.380Z,36.81
2019-04-01T09:29:07.799Z,36.74
2019-04-01T09:31:39.052Z,36.64
2019-04-01T09:34:10.325Z,36.56
2019-04-01T09:36:41.581Z,36.40
2019-04-01T09:39:12.829Z,36.34
2019-04-01T09:41:44.134Z,36.15
2019-04-01T09:44:15.404Z,36.15
2019-04-01T09:46:48.939Z,36.09
2019-04-01T09:49:20.669Z,35.89
2019-04-01T09:51:51.874Z,35.82
2019-04-01T09:54:24.912Z,35.73
2019-04-01T09:56:56.155Z,35.66
2019-04-01T09:59:27.523Z,35.58
2019-04-01T10:01:58.750Z,35.44
2019-04-01T10:04:30.084Z,35.48
2019-04-01T10:07:01.395Z,35.48
2019-04-01T10:09:33.883Z,35.42
2019-04-01T10:12:05.202Z,35.24
2019-04-01T10:14:37.709Z,35.21
2019-04-01T10:17:08.927Z,35.26
2019-04-01T10:19:40.236Z,35.25
2019-04-01T10:22:11.468Z,35.26
2019-04-01T10:24:42.725Z,35.19
2019-04-01T10:27:14.935Z,35.14
2019-04-01T10:29:46.208Z,35.01
2019-04-01T10:32:17.531Z,34.91
2019-04-01T10:34:48.815Z,34.88
2019-04-01T10:37:20.136Z,34.85
2019-04-01T10:39:51.381Z,34.69
2019-04-01T10:42:22.894Z,34.78
2019-04-01T10:44:54.158Z,34.69
2019-04-01T10:47:25.586Z,34.46
2019-04-01T10:49:56.959Z,34.47
2019-04-01T10:52:28.261Z,34.47
2019-04-01T10:54:59.693Z,34.38
2019-04-01T10:57:31.005Z,34.35
2019-04-01T11:00:02.308Z,34.33
2019-04-01T11:02:33.649Z,34.15
2019-04-01T11:05:05.559Z,34.03
2019-04-01T11:07:36.912Z,33.98
2019-04-01T11:10:11.424Z,33.92
2019-04-01T11:12:41.591Z,33.79
2019-04-01T11:15:15.809Z,33.71
2019-04-01T11:17:47.355Z,33.69
2019-04-01T11:20:18.682Z,33.65
2019-04-01T11:22:49.952Z,33.50
2019-04-01T11:25:21.750Z,33.36
2019-04-01T11:27:52.975Z,33.27
2019-04-01T11:30:24.253Z,33.23
2019-04-01T11:32:55.556Z,33.30
2019-04-01T11:35:26.800Z,33.15
2019-04-01T11:37:58.189Z,33.04
2019-04-01T11:40:29.397Z,33.04
2019-04-01T11:43:04.685Z,32.94
2019-04-01T11:45:33.790Z,32.85
2019-04-01T11:48:06.235Z,32.84
2019-04-01T11:50:37.580Z,32.62
2019-04-01T11:53:08.836Z,32.63
2019-04-01T11:55:41.356Z,32.50
2019-04-01T11:58:12.695Z,32.38
2019-04-01T12:00:44.025Z,32.49
2019-04-01T12:03:15.185Z,32.41
2019-04-01T12:05:46.437Z,32.40
2019-04-01T12:08:17.886Z,32.23
2019-04-01T12:10:49.139Z,32.30
2019-04-01T12:13:20.600Z,32.03
2019-04-01T12:15:51.839Z,31.96
2019-04-01T12:18:23.113Z,31.88
2019-04-01T12:20:55.434Z,31.89
2019-04-01T12:23:26.715Z,31.81
2019-04-01T12:26:13.903Z,31.86
2019-04-01T12:28:32.015Z,31.83
2019-04-01T12:31:04.460Z,31.70
2019-04-01T12:33:36.752Z,31.51
2019-04-01T12:36:11.429Z,31.48
2019-04-01T12:38:42.246Z,31.38
2019-04-01T12:41:13.504Z,31.16
2019-04-01T12:43:44.845Z,31.11
2019-04-01T12:46:16.232Z,30.99
2019-04-01T12:48:47.361Z,30.77
2019-04-01T12:51:18.541Z,30.54
2019-04-01T12:53:49.746Z,30.25
2019-04-01T12:56:20.920Z,29.98
2019-04-01T12:58:52.151Z,29.47
2019-04-01T13:01:24.498Z,28.04
2019-04-01T13:03:56.824Z,26.90
2019-04-01T13:06:27.989Z,26.16
2019-04-01T13:08:59.227Z,25.60
2019-04-01T13:11:30.377Z,25.19
2019-04-01T13:14:01.583Z,24.72
2019-04-01T13:16:32.738Z,24.31
2019-04-01T13:19:03.937Z,23.92
2019-04-01T13:21:35.134Z,23.85
2019-04-01T13:24:06.229Z,23.74
2019-04-01T13:26:38.545Z,23.69
2019-04-01T13:29:09.750Z,23.66
2019-04-01T13:31:40.957Z,23.64
2019-04-01T13:34:12.121Z,23.62
2019-04-01T13:36:43.278Z,23.64
2019-04-01T13:39:14.498Z,23.60
2019-04-01T13:41:45.925Z,23.61
2019-04-01T13:44:18.093Z,23.54
2019-04-01T13:46:50.656Z,23.46
2019-04-01T13:49:21.927Z,23.38
2019-04-01T13:51:54.192Z,23.34
2019-04-01T13:54:25.390Z,23.26
2019-04-01T13:56:56.503Z,23.19
2019-04-01T13:59:27.645Z,23.07
2019-04-01T14:01:59.036Z,22.94
2019-04-01T14:04:33.429Z,22.78
2019-04-01T14:07:04.597Z,22.73
2019-04-01T14:09:35.879Z,22.63
2019-04-01T14:12:07.037Z,22.53
2019-04-01T14:14:38.242Z,22.38
2019-04-01T14:17:09.624Z,22.26
2019-04-01T14:19:41.920Z,22.16
2019-04-01T14:22:13.098Z,22.08
2019-04-01T14:24:45.260Z,22.00
2019-04-01T14:27:16.823Z,21.90
2019-04-01T14:29:48.091Z,21.91
2019-04-01T14:32:19.394Z,21.81
2019-04-01T14:34:50.763Z,21.68
2019-04-01T14:37:25.599Z,21.48
2019-04-01T14:39:54.933Z,21.41
2019-04-01T14:42:26.121Z,21.33
2019-04-01T14:45:00.214Z,21.21
2019-04-01T14:47:32.507Z,21.18
2019-04-01T14:50:07.479Z,21.12
2019-04-01T14:52:37.053Z,21.12
2019-04-01T14:55:08.265Z,21.04
2019-04-01T14:57:39.455Z,21.06
2019-04-01T15:00:14.712Z,20.95
2019-04-01T15:02:45.864Z,20.89
2019-04-01T15:05:17.099Z,20.86
2019-04-01T15:07:48.284Z,20.77
2019-04-01T15:10:19.749Z,20.64
2019-04-01T15:13:04.496Z,20.60
2019-04-01T15:15:23.872Z,20.54
2019-04-01T15:17:55.140Z,20.36
2019-04-01T15:20:26.495Z,20.28
2019-04-01T15:22:57.841Z,20.24
2019-04-01T15:25:29.003Z,20.21
2019-04-01T15:28:00.175Z,20.14
2019-04-01T15:30:32.083Z,20.19
2019-04-01T15:33:03.445Z,20.19
2019-04-01T15:35:34.580Z,20.12
2019-04-01T15:38:05.809Z,20.14
2019-04-01T15:40:37.121Z,20.09
2019-04-01T15:43:08.361Z,20.04
2019-04-01T15:45:39.598Z,19.97
2019-04-01T15:48:10.750Z,19.90
2019-04-01T15:50:41.970Z,19.89
2019-04-01T15:53:13.101Z,19.85
2019-04-01T15:55:44.363Z,19.89
2019-04-01T15:58:15.557Z,19.80
2019-04-01T16:00:46.697Z,19.81
2019-04-01T16:03:18.003Z,19.78
2019-04-01T16:05:49.216Z,19.82
2019-04-01T16:08:20.398Z,19.77
2019-04-01T16:10:51.545Z,19.72
2019-04-01T16:13:22.796Z,19.70
2019-04-01T16:15:54.031Z,19.64
2019-04-01T16:18:26.391Z,19.73
2019-04-01T16:20:59.394Z,19.80
2019-04-01T16:23:30.387Z,19.84
2019-04-01T16:26:01.670Z,19.90
2019-04-01T16:28:32.804Z,19.93
2019-04-01T16:31:04.306Z,19.99
2019-04-01T16:33:35.510Z,20.08
2019-04-01T16:36:07.636Z,20.15
2019-04-01T16:38:38.965Z,20.23
2019-04-01T16:41:10.143Z,20.27
2019-04-01T16:43:41.361Z,20.37
2019-04-01T16:46:12.663Z,20.44
2019-04-01T16:48:46.376Z,20.50
2019-04-01T16:51:16.830Z,20.51
2019-04-01T16:53:48.077Z,20.55
2019-04-01T16:56:19.208Z,20.54
2019-04-01T16:58:50.371Z,20.60
2019-04-01T17:01:23.166Z,20.85
2019-04-01T17:03:54.455Z,21.13
2019-04-01T17:06:26.755Z,21.48
2019-04-01T17:08:57.952Z,21.82
2019-04-01T17:11:30.128Z,22.08
2019-04-01T17:14:02.152Z,22.40
2019-04-01T17:16:34.409Z,22.75
2019-04-01T17:19:05.732Z,23.04
2019-04-01T17:21:36.882Z,23.32
2019-04-01T17:24:08.040Z,23.55
2019-04-01T17:27:09.810Z,23.81
2019-04-01T17:29:42.112Z,24.01
2019-04-01T17:32:13.286Z,24.31
2019-04-01T17:34:44.975Z,24.52
2019-04-01T17:37:16.342Z,24.67
2019-04-01T17:39:47.530Z,24.82
2019-04-01T17:42:18.796Z,24.99
2019-04-01T17:44:55.408Z,25.10
2019-04-01T17:47:27.440Z,25.27
2019-04-01T17:49:59.379Z,25.38
2019-04-01T17:52:31.483Z,25.52
2019-04-01T17:55:02.659Z,25.63
2019-04-01T17:57:34.383Z,25.79
2019-04-01T18:00:09.342Z,25.90
2019-04-01T18:02:40.703Z,25.99
2019-04-01T18:05:15.260Z,26.11
2019-04-01T18:07:46.650Z,26.19
2019-04-01T18:10:18.241Z,26.31
2019-04-01T18:12:50.072Z,26.38
2019-04-01T18:15:25.290Z,26.53
2019-04-01T18:17:57.241Z,26.65
2019-04-01T18:20:28.651Z,26.73
2019-04-01T18:23:00.138Z,26.85
2019-04-01T18:25:31.785Z,26.95
2019-04-01T18:28:03.075Z,27.01
2019-04-01T18:30:35.241Z,27.10
2019-04-01T18:33:07.035Z,27.19
2019-04-01T18:35:38.600Z,27.29
2019-04-01T18:38:10.116Z,27.39
2019-04-01T18:40:41.557Z,27.50
2019-04-01T18:43:12.967Z,27.62
2019-04-01T18:45:45.718Z,27.76
2019-04-01T18:48:17.133Z,27.87
2019-04-01T18:50:48.339Z,27.95
2019-04-01T18:53:19.621Z,28.05
2019-04-01T18:55:52.835Z,28.15
2019-04-01T18:58:24.294Z,28.26
2019-04-01T19:00:56.459Z,28.36
2019-04-01T19:03:27.615Z,28.46
2019-04-01T19:05:59.935Z,28.51
2019-04-01T19:08:31.059Z,28.58
2019-04-01T19:11:02.797Z,28.68
2019-04-01T19:13:34.276Z,28.76
2019-04-01T19:16:06.914Z,28.85
2019-04-01T19:18:39.745Z,28.93
2019-04-01T19:21:11.147Z,29.00
2019-04-01T19:23:42.463Z,29.10
2019-04-01T19:26:13.636Z,29.19
2019-04-01T19:28:47.072Z,29.23
2019-04-01T19:31:18.649Z,29.32
2019-04-01T19:33:49.847Z,29.39
2019-04-01T19:36:21.124Z,29.47
2019-04-01T19:38:54.306Z,29.56
2019-04-01T19:41:25.661Z,29.65
2019-04-01T19:43:57.208Z,29.71
2019-04-01T19:46:28.695Z,29.79
2019-04-01T19:49:00.195Z,29.86
2019-04-01T19:51:35.852Z,29.95
2019-04-01T19:54:06.307Z,30.04
2019-04-01T19:56:37.810Z,30.12
2019-04-01T19:59:09.037Z,30.17
2019-04-01T20:01:40.305Z,30.26
2019-04-01T20:04:11.820Z,30.33
2019-04-01T20:06:43.358Z,30.42
2019-04-01T20:09:14.961Z,30.49
2019-04-01T20:11:46.221Z,30.57
2019-04-01T20:14:17.661Z,30.63
2019-04-01T20:16:49.845Z,30.70
2019-04-01T20:19:21.057Z,30.76
2019-04-01T20:21:52.276Z,30.84
2019-04-01T20:24:24.040Z,30.88
2019-04-01T20:26:55.485Z,30.94
2019-04-01T20:29:29.994Z,30.99
2019-04-01T20:31:59.827Z,31.04
2019-04-01T20:34:32.272Z,31.12
2019-04-01T20:37:03.766Z,31.20
2019-04-01T20:39:35.659Z,31.24
2019-04-01T20:42:07.379Z,31.29
2019-04-01T20:44:39.062Z,31.34
2019-04-01T20:47:10.613Z,31.39
2019-04-01T20:49:42.268Z,31.45
2019-04-01T20:52:13.919Z,31.48
2019-04-01T20:54:45.797Z,31.54
2019-04-01T20:57:17.710Z,31.60
2019-04-01T20:59:49.057Z,31.64
2019-04-01T21:02:20.543Z,31.69
2019-04-01T21:04:52.720Z,31.74
2019-04-01T21:07:25.423Z,31.78
2019-04-01T21:09:57.162Z,31.83
2019-04-01T21:12:28.586Z,31.88
2019-04-01T21:15:01.292Z,31.93
2019-04-01T21:17:32.791Z,31.99
2019-04-01T21:20:04.962Z,32.04
2019-04-01T21:22:37.286Z,32.10
2019-04-01T21:25:10.711Z,32.17
2019-04-01T21:27:41.996Z,32.22
2019-04-01T21:30:13.976Z,32.27
2019-04-01T21:32:45.314Z,32.33
2019-04-01T21:35:16.836Z,32.38
2019-04-01T21:37:48.046Z,32.42
2019-04-01T21:40:19.383Z,32.48
2019-04-01T21:42:51.564Z,32.53
2019-04-01T21:45:23.127Z,32.56
2019-04-01T21:47:54.283Z,32.60
2019-04-01T21:50:25.498Z,32.67
2019-04-01T21:52:56.699Z,32.71
2019-04-01T21:55:27.838Z,32.75
2019-04-01T21:57:59.074Z,32.82
2019-04-01T22:00:48.248Z,32.87
2019-04-01T22:03:19.583Z,32.92
2019-04-01T22:05:50.751Z,32.94
2019-04-01T22:08:21.910Z,32.94
2019-04-01T22:10:53.111Z,33.00
2019-04-01T22:13:24.300Z,33.02
2019-04-01T22:15:55.420Z,33.09
2019-04-01T22:18:26.619Z,33.13
2019-04-01T22:20:57.936Z,33.12
2019-04-01T22:23:29.100Z,33.15
2019-04-01T22:26:00.309Z,33.18
2019-04-01T22:28:31.419Z,33.21
2019-04-01T22:31:02.718Z,33.24
2019-04-01T22:33:33.843Z,33.23
2019-04-01T22:36:05.049Z,33.26
2019-04-01T22:38:36.219Z,33.34
2019-04-01T22:41:07.428Z,33.35
2019-04-01T22:43:38.565Z,33.39
2019-04-01T22:46:09.708Z,33.44
2019-04-01T22:48:40.864Z,33.45
2019-04-01T22:51:12.002Z,33.49
2019-04-01T22:53:43.175Z,33.48
2019-04-01T22:56:14.354Z,33.52
2019-04-01T22:58:45.653Z,33.52
2019-04-01T23:01:16.829Z,33.56
2019-04-01T23:03:48.050Z,33.59
2019-04-01T23:06:19.246Z,33.63
2019-04-01T23:08:50.383Z,33.68
2019-04-01T23:11:21.536Z,33.71
2019-04-01T23:13:52.686Z,33.75
2019-04-01T23:16:23.836Z,33.76
2019-04-01T23:18:55.119Z,33.79
2019-04-01T23:21:26.259Z,33.82
2019-04-01T23:23:59.111Z,33.82
2019-04-01T23:26:30.342Z,33.86
2019-04-01T23:29:02.593Z,33.86
2019-04-01T23:31:33.729Z,33.88
2019-04-01T23:34:04.894Z,33.91
2019-04-01T23:36:36.065Z,33.93
2019-04-01T23:39:07.944Z,33.95
2019-04-01T23:41:39.115Z,33.99
2019-04-01T23:44:10.267Z,34.02
2019-04-01T23:46:42.493Z,34.04
2019-04-01T23:49:13.652Z,34.07
2019-04-01T23:51:44.851Z,34.08
2019-04-01T23:54:16.008Z,34.09
2019-04-01T23:56:47.228Z,34.10
2019-04-01T23:59:19.188Z,34.11
